sensor_id;sensor_type;location;lat;lon;timestamp;P1;P2;P0
72031;PMS5003;49185;42.320;23.198;2023-07-20T00:00:29;4.00;4.00;0.00
72031;PMS5003;49185;42.320;23.198;2023-07-20T00:03:09;4.00;4.00;0.00
72031;PMS5003;49185;42.320;23.198;2023-07-20T00:05:35;4.00;3.00;0.00
72031;PMS5003;49185;42.320;23.198;2023-07-20T00:08:01;1.67;1.67;0.00
72031;PMS5003;49185;42.320;23.198;2023-07-20T00:10:26;3.00;3.00;0.00
72031;PMS5003;49185;42.320;23.198;2023-07-20T00:12:52;4.00;2.00;0.00
72031;PMS5003;49185;42.320;23.198;2023-07-20T00:15:17;3.33;3.00;0.00
72031;PMS5003;49185;42.320;23.198;2023-07-20T00:18:01;3.75;2.00;0.00
72031;PMS5003;49185;42.320;23.198;2023-07-20T00:20:26;3.00;1.33;0.00
72031;PMS5003;49185;42.320;23.198;2023-07-20T00:22:52;2.00;2.00;0.00
72031;PMS5003;49185;42.320;23.198;2023-07-20T00:25:18;2.67;2.67;0.00
72031;PMS5003;49185;42.320;23.198;2023-07-20T00:27:43;2.00;2.00;0.00
72031;PMS5003;49185;42.320;23.198;2023-07-20T00:30:09;2.00;1.33;0.00
72031;PMS5003;49185;42.320;23.198;2023-07-20T00:32:35;1.00;0.00;0.00
72031;PMS5003;49185;42.320;23.198;2023-07-20T00:35:00;1.00;0.00;0.00
72031;PMS5003;49185;42.320;23.198;2023-07-20T00:37:25;1.67;1.67;0.00
72031;PMS5003;49185;42.320;23.198;2023-07-20T00:39:52;2.00;2.00;0.00
72031;PMS5003;49185;42.320;23.198;2023-07-20T00:42:18;1.00;0.00;0.00
72031;PMS5003;49185;42.320;23.198;2023-07-20T00:44:43;3.00;1.00;0.00
72031;PMS5003;49185;42.320;23.198;2023-07-20T00:47:09;1.00;1.00;0.00
72031;PMS5003;49185;42.320;23.198;2023-07-20T00:49:35;2.00;2.00;0.00
72031;PMS5003;49185;42.320;23.198;2023-07-20T00:52:01;2.00;2.00;0.00
72031;PMS5003;49185;42.320;23.198;2023-07-20T00:54:30;1.00;1.00;0.00
72031;PMS5003;49185;42.320;23.198;2023-07-20T00:57:15;1.25;1.00;0.00
72031;PMS5003;49185;42.320;23.198;2023-07-20T00:59:42;1.75;1.75;0.00
72031;PMS5003;49185;42.320;23.198;2023-07-20T01:02:08;1.00;1.00;0.00
72031;PMS5003;49185;42.320;23.198;2023-07-20T01:04:34;1.00;1.00;0.00
72031;PMS5003;49185;42.320;23.198;2023-07-20T01:07:43;2.00;1.00;0.00
72031;PMS5003;49185;42.320;23.198;2023-07-20T01:09:52;3.00;2.75;0.00
72031;PMS5003;49185;42.320;23.198;2023-07-20T01:12:43;2.00;1.00;0.00
72031;PMS5003;49185;42.320;23.198;2023-07-20T01:15:12;3.00;3.00;0.00
72031;PMS5003;49185;42.320;23.198;2023-07-20T01:17:38;2.75;2.75;0.00
72031;PMS5003;49185;42.320;23.198;2023-07-20T01:20:05;2.00;2.00;0.00
72031;PMS5003;49185;42.320;23.198;2023-07-20T01:33:55;4.00;3.00;0.00
72031;PMS5003;49185;42.320;23.198;2023-07-20T01:36:23;3.00;3.00;0.00
72031;PMS5003;49185;42.320;23.198;2023-07-20T01:38:51;3.00;3.00;0.00
72031;PMS5003;49185;42.320;23.198;2023-07-20T01:41:18;4.00;4.00;0.00
72031;PMS5003;49185;42.320;23.198;2023-07-20T01:43:43;3.00;3.00;0.25
72031;PMS5003;49185;42.320;23.198;2023-07-20T01:46:09;2.67;2.67;0.00
72031;PMS5003;49185;42.320;23.198;2023-07-20T01:48:35;4.00;4.00;0.00
72031;PMS5003;49185;42.320;23.198;2023-07-20T01:51:00;3.00;3.00;0.00
72031;PMS5003;49185;42.320;23.198;2023-07-20T01:53:25;4.67;4.00;0.00
72031;PMS5003;49185;42.320;23.198;2023-07-20T01:55:54;3.00;3.00;0.00
72031;PMS5003;49185;42.320;23.198;2023-07-20T01:58:20;2.00;2.00;0.00
72031;PMS5003;49185;42.320;23.198;2023-07-20T02:00:45;3.00;2.50;0.00
72031;PMS5003;49185;42.320;23.198;2023-07-20T02:03:11;5.00;4.00;0.00
72031;PMS5003;49185;42.320;23.198;2023-07-20T02:05:37;4.67;4.67;0.00
72031;PMS5003;49185;42.320;23.198;2023-07-20T02:08:03;5.00;4.00;0.00
72031;PMS5003;49185;42.320;23.198;2023-07-20T02:10:28;3.00;3.00;0.00
72031;PMS5003;49185;42.320;23.198;2023-07-20T02:12:54;3.00;3.00;0.00
72031;PMS5003;49185;42.320;23.198;2023-07-20T02:15:19;4.33;4.33;0.00
72031;PMS5003;49185;42.320;23.198;2023-07-20T02:17:45;5.00;5.00;0.00
72031;PMS5003;49185;42.320;23.198;2023-07-20T02:20:10;5.67;5.67;0.00
72031;PMS5003;49185;42.320;23.198;2023-07-20T02:22:36;5.00;5.00;0.00
72031;PMS5003;49185;42.320;23.198;2023-07-20T02:25:03;7.00;6.00;2.00
72031;PMS5003;49185;42.320;23.198;2023-07-20T02:27:30;6.50;5.25;1.00
72031;PMS5003;49185;42.320;23.198;2023-07-20T02:29:55;5.00;4.33;0.00
72031;PMS5003;49185;42.320;23.198;2023-07-20T02:32:21;5.00;5.00;1.00
72031;PMS5003;49185;42.320;23.198;2023-07-20T02:34:48;7.00;7.00;1.75
72031;PMS5003;49185;42.320;23.198;2023-07-20T02:37:15;6.00;6.00;2.00
72031;PMS5003;49185;42.320;23.198;2023-07-20T02:39:41;8.50;7.50;2.50
72031;PMS5003;49185;42.320;23.198;2023-07-20T02:42:07;7.00;7.00;3.00
72031;PMS5003;49185;42.320;23.198;2023-07-20T02:44:32;5.33;5.33;2.00
72031;PMS5003;49185;42.320;23.198;2023-07-20T02:46:57;6.00;6.00;2.00
72031;PMS5003;49185;42.320;23.198;2023-07-20T02:49:23;7.00;7.00;3.00
72031;PMS5003;49185;42.320;23.198;2023-07-20T02:51:49;7.67;7.33;3.00
72031;PMS5003;49185;42.320;23.198;2023-07-20T02:54:14;8.00;8.00;1.00
72031;PMS5003;49185;42.320;23.198;2023-07-20T02:56:40;8.00;8.00;1.75
72031;PMS5003;49185;42.320;23.198;2023-07-20T02:59:05;8.00;8.00;2.00
72031;PMS5003;49185;42.320;23.198;2023-07-20T03:01:31;9.00;7.67;2.67
72031;PMS5003;49185;42.320;23.198;2023-07-20T03:03:56;11.00;9.00;5.00
72031;PMS5003;49185;42.320;23.198;2023-07-20T03:06:22;9.00;8.00;4.00
72031;PMS5003;49185;42.320;23.198;2023-07-20T03:08:47;12.00;11.00;5.00
72031;PMS5003;49185;42.320;23.198;2023-07-20T03:11:13;12.33;12.00;5.67
72031;PMS5003;49185;42.320;23.198;2023-07-20T03:13:39;14.00;12.25;6.00
72031;PMS5003;49185;42.320;23.198;2023-07-20T03:16:09;12.00;10.00;3.25
72031;PMS5003;49185;42.320;23.198;2023-07-20T03:18:35;11.50;10.50;4.00
72031;PMS5003;49185;42.320;23.198;2023-07-20T03:21:00;8.33;7.67;3.00
72031;PMS5003;49185;42.320;23.198;2023-07-20T03:23:26;8.00;7.00;4.00
72031;PMS5003;49185;42.320;23.198;2023-07-20T03:25:52;10.00;9.00;5.00
72031;PMS5003;49185;42.320;23.198;2023-07-20T03:28:17;9.67;8.67;3.67
72031;PMS5003;49185;42.320;23.198;2023-07-20T03:30:42;10.00;9.00;3.00
72031;PMS5003;49185;42.320;23.198;2023-07-20T03:33:08;10.00;10.00;4.67
72031;PMS5003;49185;42.320;23.198;2023-07-20T03:35:33;11.00;11.00;5.00
72031;PMS5003;49185;42.320;23.198;2023-07-20T03:37:59;7.00;6.00;4.00
72031;PMS5003;49185;42.320;23.198;2023-07-20T03:40:24;10.67;10.67;4.00
72031;PMS5003;49185;42.320;23.198;2023-07-20T03:42:49;10.00;9.00;4.00
72031;PMS5003;49185;42.320;23.198;2023-07-20T03:45:15;11.00;8.00;5.00
72031;PMS5003;49185;42.320;23.198;2023-07-20T03:47:40;11.00;9.00;4.00
72031;PMS5003;49185;42.320;23.198;2023-07-20T03:50:06;11.67;9.00;3.00
72031;PMS5003;49185;42.320;23.198;2023-07-20T03:52:32;12.25;10.00;4.75
72031;PMS5003;49185;42.320;23.198;2023-07-20T03:54:57;14.67;13.00;6.00
72031;PMS5003;49185;42.320;23.198;2023-07-20T03:57:22;14.00;13.00;7.00
72031;PMS5003;49185;42.320;23.198;2023-07-20T03:59:48;12.33;10.33;5.00
72031;PMS5003;49185;42.320;23.198;2023-07-20T04:02:13;13.00;10.00;3.33
72031;PMS5003;49185;42.320;23.198;2023-07-20T04:04:39;13.00;11.67;5.00
72031;PMS5003;49185;42.320;23.198;2023-07-20T04:07:05;15.00;13.75;6.00
72031;PMS5003;49185;42.320;23.198;2023-07-20T04:09:31;19.00;17.00;8.00
72031;PMS5003;49185;42.320;23.198;2023-07-20T04:11:57;20.50;20.00;8.00
72031;PMS5003;49185;42.320;23.198;2023-07-20T04:14:22;20.67;20.00;9.00
72031;PMS5003;49185;42.320;23.198;2023-07-20T04:16:47;21.00;21.00;9.67
72031;PMS5003;49185;42.320;23.198;2023-07-20T04:19:15;18.67;18.00;7.00
72031;PMS5003;49185;42.320;23.198;2023-07-20T04:21:41;16.00;15.00;6.00
72031;PMS5003;49185;42.320;23.198;2023-07-20T04:24:06;15.00;13.00;6.00
72031;PMS5003;49185;42.320;23.198;2023-07-20T04:26:32;40.67;33.33;18.00
72031;PMS5003;49185;42.320;23.198;2023-07-20T04:28:57;31.00;29.33;17.00
72031;PMS5003;49185;42.320;23.198;2023-07-20T04:31:23;21.00;21.00;11.00
72031;PMS5003;49185;42.320;23.198;2023-07-20T04:33:49;18.00;17.67;6.00
72031;PMS5003;49185;42.320;23.198;2023-07-20T04:36:14;12.67;12.67;5.00
72031;PMS5003;49185;42.320;23.198;2023-07-20T04:38:39;8.33;6.00;3.00
72031;PMS5003;49185;42.320;23.198;2023-07-20T04:41:05;6.33;5.67;3.33
72031;PMS5003;49185;42.320;23.198;2023-07-20T04:43:30;6.00;6.00;3.00
72031;PMS5003;49185;42.320;23.198;2023-07-20T04:45:56;6.67;6.67;4.00
72031;PMS5003;49185;42.320;23.198;2023-07-20T04:48:21;21.00;20.00;11.33
72031;PMS5003;49185;42.320;23.198;2023-07-20T04:50:47;27.00;24.33;16.00
72031;PMS5003;49185;42.320;23.198;2023-07-20T04:53:12;16.33;15.67;7.00
72031;PMS5003;49185;42.320;23.198;2023-07-20T04:55:38;8.67;8.00;4.00
72031;PMS5003;49185;42.320;23.198;2023-07-20T04:58:04;7.50;6.75;4.00
72031;PMS5003;49185;42.320;23.198;2023-07-20T05:00:31;7.00;6.00;3.00
72031;PMS5003;49185;42.320;23.198;2023-07-20T05:02:58;4.00;4.00;1.00
72031;PMS5003;49185;42.320;23.198;2023-07-20T05:05:23;6.00;6.00;2.00
72031;PMS5003;49185;42.320;23.198;2023-07-20T05:07:49;6.00;5.00;2.00
72031;PMS5003;49185;42.320;23.198;2023-07-20T05:10:14;5.00;5.00;2.00
72031;PMS5003;49185;42.320;23.198;2023-07-20T05:12:40;7.33;6.00;2.00
72031;PMS5003;49185;42.320;23.198;2023-07-20T05:15:05;5.00;4.00;2.00
72031;PMS5003;49185;42.320;23.198;2023-07-20T05:17:31;5.00;5.00;1.00
72031;PMS5003;49185;42.320;23.198;2023-07-20T05:19:56;3.00;3.00;1.00
72031;PMS5003;49185;42.320;23.198;2023-07-20T05:22:22;5.00;5.00;2.00
72031;PMS5003;49185;42.320;23.198;2023-07-20T05:24:47;6.00;6.00;3.00
72031;PMS5003;49185;42.320;23.198;2023-07-20T05:27:13;7.00;6.67;3.00
72031;PMS5003;49185;42.320;23.198;2023-07-20T05:29:43;6.00;5.00;2.00
72031;PMS5003;49185;42.320;23.198;2023-07-20T05:32:09;6.50;4.75;2.00
72031;PMS5003;49185;42.320;23.198;2023-07-20T05:34:35;6.00;5.00;2.00
72031;PMS5003;49185;42.320;23.198;2023-07-20T05:37:00;7.00;6.00;2.00
72031;PMS5003;49185;42.320;23.198;2023-07-20T05:39:26;5.00;5.00;3.00
72031;PMS5003;49185;42.320;23.198;2023-07-20T05:41:51;4.33;4.33;2.00
72031;PMS5003;49185;42.320;23.198;2023-07-20T05:44:16;6.00;4.00;2.00
72031;PMS5003;49185;42.320;23.198;2023-07-20T05:46:42;6.00;5.00;3.00
72031;PMS5003;49185;42.320;23.198;2023-07-20T05:49:08;6.00;5.00;1.00
72031;PMS5003;49185;42.320;23.198;2023-07-20T05:51:33;5.00;5.00;1.00
72031;PMS5003;49185;42.320;23.198;2023-07-20T05:53:58;6.00;6.00;1.00
72031;PMS5003;49185;42.320;23.198;2023-07-20T05:56:24;4.00;4.00;1.00
72031;PMS5003;49185;42.320;23.198;2023-07-20T05:58:51;6.00;4.33;1.00
72031;PMS5003;49185;42.320;23.198;2023-07-20T06:01:17;5.00;4.00;1.00
72031;PMS5003;49185;42.320;23.198;2023-07-20T06:03:42;3.00;3.00;1.33
72031;PMS5003;49185;42.320;23.198;2023-07-20T06:06:08;3.33;3.00;1.00
72031;PMS5003;49185;42.320;23.198;2023-07-20T06:08:33;4.00;4.00;1.00
72031;PMS5003;49185;42.320;23.198;2023-07-20T06:11:01;3.00;3.00;0.00
72031;PMS5003;49185;42.320;23.198;2023-07-20T06:13:26;4.00;4.00;0.00
72031;PMS5003;49185;42.320;23.198;2023-07-20T06:15:52;5.00;3.00;0.00
72031;PMS5003;49185;42.320;23.198;2023-07-20T06:18:20;5.00;5.00;0.33
72031;PMS5003;49185;42.320;23.198;2023-07-20T06:20:51;4.00;4.00;1.00
72031;PMS5003;49185;42.320;23.198;2023-07-20T06:23:20;3.75;3.75;1.00
72031;PMS5003;49185;42.320;23.198;2023-07-20T06:25:46;5.00;4.25;1.00
72031;PMS5003;49185;42.320;23.198;2023-07-20T06:28:12;4.00;3.67;1.00
72031;PMS5003;49185;42.320;23.198;2023-07-20T06:30:37;2.25;2.25;1.00
72031;PMS5003;49185;42.320;23.198;2023-07-20T06:33:03;2.33;2.33;0.00
72031;PMS5003;49185;42.320;23.198;2023-07-20T06:35:28;5.00;5.00;1.00
72031;PMS5003;49185;42.320;23.198;2023-07-20T06:37:54;5.00;4.00;1.00
72031;PMS5003;49185;42.320;23.198;2023-07-20T06:40:19;6.33;6.00;2.33
72031;PMS5003;49185;42.320;23.198;2023-07-20T06:42:44;6.00;5.00;2.00
72031;PMS5003;49185;42.320;23.198;2023-07-20T06:45:12;4.75;4.00;2.00
72031;PMS5003;49185;42.320;23.198;2023-07-20T06:47:38;5.67;5.00;1.00
72031;PMS5003;49185;42.320;23.198;2023-07-20T06:50:04;7.00;7.00;4.00
72031;PMS5003;49185;42.320;23.198;2023-07-20T06:52:30;5.50;5.00;2.00
72031;PMS5003;49185;42.320;23.198;2023-07-20T06:54:56;5.67;5.67;1.00
72031;PMS5003;49185;42.320;23.198;2023-07-20T06:57:21;6.00;6.00;3.00
72031;PMS5003;49185;42.320;23.198;2023-07-20T06:59:46;4.00;4.00;2.33
72031;PMS5003;49185;42.320;23.198;2023-07-20T07:02:12;6.00;6.00;1.00
72031;PMS5003;49185;42.320;23.198;2023-07-20T07:04:40;6.00;6.00;2.00
72031;PMS5003;49185;42.320;23.198;2023-07-20T07:07:06;5.50;5.50;2.50
72031;PMS5003;49185;42.320;23.198;2023-07-20T07:09:31;5.00;3.00;0.00
72031;PMS5003;49185;42.320;23.198;2023-07-20T07:11:57;5.00;5.00;0.00
72031;PMS5003;49185;42.320;23.198;2023-07-20T07:14:22;4.67;4.67;0.00
72031;PMS5003;49185;42.320;23.198;2023-07-20T07:16:50;5.00;5.00;1.00
72031;PMS5003;49185;42.320;23.198;2023-07-20T07:19:16;5.00;5.00;0.00
72031;PMS5003;49185;42.320;23.198;2023-07-20T07:21:41;5.67;5.00;0.00
72031;PMS5003;49185;42.320;23.198;2023-07-20T07:24:07;7.00;5.00;2.00
72031;PMS5003;49185;42.320;23.198;2023-07-20T07:26:32;6.67;5.00;1.00
72031;PMS5003;49185;42.320;23.198;2023-07-20T07:28:58;6.33;6.00;0.00
72031;PMS5003;49185;42.320;23.198;2023-07-20T07:31:24;5.00;5.00;0.00
72031;PMS5003;49185;42.320;23.198;2023-07-20T07:33:50;5.00;5.00;1.00
72031;PMS5003;49185;42.320;23.198;2023-07-20T07:36:16;6.00;6.00;3.00
72031;PMS5003;49185;42.320;23.198;2023-07-20T07:38:41;9.00;8.00;3.00
72031;PMS5003;49185;42.320;23.198;2023-07-20T07:41:10;6.00;6.00;2.50
72031;PMS5003;49185;42.320;23.198;2023-07-20T07:43:35;7.00;7.00;2.33
72031;PMS5003;49185;42.320;23.198;2023-07-20T07:46:01;8.00;7.67;4.00
72031;PMS5003;49185;42.320;23.198;2023-07-20T07:48:26;7.00;7.00;4.00
72031;PMS5003;49185;42.320;23.198;2023-07-20T07:50:53;7.00;7.00;2.75
72031;PMS5003;49185;42.320;23.198;2023-07-20T07:53:19;5.00;5.00;3.00
72031;PMS5003;49185;42.320;23.198;2023-07-20T07:55:44;6.00;6.00;3.00
72031;PMS5003;49185;42.320;23.198;2023-07-20T07:58:10;7.00;6.67;2.67
72031;PMS5003;49185;42.320;23.198;2023-07-20T08:00:35;5.00;5.00;3.00
72031;PMS5003;49185;42.320;23.198;2023-07-20T08:03:01;6.67;6.00;4.00
72031;PMS5003;49185;42.320;23.198;2023-07-20T08:05:26;7.67;7.00;4.67
72031;PMS5003;49185;42.320;23.198;2023-07-20T08:07:52;7.67;7.67;3.00
72031;PMS5003;49185;42.320;23.198;2023-07-20T08:10:17;8.33;8.00;3.00
72031;PMS5003;49185;42.320;23.198;2023-07-20T08:12:42;6.00;6.00;2.00
72031;PMS5003;49185;42.320;23.198;2023-07-20T08:15:10;8.33;8.00;4.33
72031;PMS5003;49185;42.320;23.198;2023-07-20T08:17:36;7.00;6.00;3.00
72031;PMS5003;49185;42.320;23.198;2023-07-20T08:20:01;9.33;8.00;3.00
72031;PMS5003;49185;42.320;23.198;2023-07-20T08:22:27;9.00;8.00;3.00
72031;PMS5003;49185;42.320;23.198;2023-07-20T08:24:52;6.00;6.00;3.00
72031;PMS5003;49185;42.320;23.198;2023-07-20T08:27:18;6.00;6.00;3.33
72031;PMS5003;49185;42.320;23.198;2023-07-20T08:29:43;7.00;7.00;3.00
72031;PMS5003;49185;42.320;23.198;2023-07-20T08:32:08;10.67;10.67;7.00
72031;PMS5003;49185;42.320;23.198;2023-07-20T08:34:34;8.00;7.00;4.00
72031;PMS5003;49185;42.320;23.198;2023-07-20T08:36:59;9.00;9.00;4.00
72031;PMS5003;49185;42.320;23.198;2023-07-20T08:39:25;10.00;9.67;5.00
72031;PMS5003;49185;42.320;23.198;2023-07-20T08:41:50;12.00;11.00;5.00
72031;PMS5003;49185;42.320;23.198;2023-07-20T08:44:16;10.00;8.00;5.00
72031;PMS5003;49185;42.320;23.198;2023-07-20T08:46:42;11.50;9.50;4.25
72031;PMS5003;49185;42.320;23.198;2023-07-20T08:49:08;14.00;12.00;6.00
72031;PMS5003;49185;42.320;23.198;2023-07-20T08:51:36;13.00;11.00;6.00
72031;PMS5003;49185;42.320;23.198;2023-07-20T08:54:02;13.00;12.33;4.67
72031;PMS5003;49185;42.320;23.198;2023-07-20T08:56:27;10.67;10.00;5.67
72031;PMS5003;49185;42.320;23.198;2023-07-20T08:58:54;11.50;11.50;5.50
72031;PMS5003;49185;42.320;23.198;2023-07-20T09:01:21;10.25;10.00;6.00
72031;PMS5003;49185;42.320;23.198;2023-07-20T09:03:47;15.00;13.25;7.50
72031;PMS5003;49185;42.320;23.198;2023-07-20T09:06:14;16.00;12.75;6.75
72031;PMS5003;49185;42.320;23.198;2023-07-20T09:08:39;12.33;10.33;6.00
72031;PMS5003;49185;42.320;23.198;2023-07-20T09:11:06;11.00;10.75;6.00
72031;PMS5003;49185;42.320;23.198;2023-07-20T09:13:32;10.00;10.00;5.00
72031;PMS5003;49185;42.320;23.198;2023-07-20T09:15:58;10.50;9.50;5.50
72031;PMS5003;49185;42.320;23.198;2023-07-20T09:18:27;9.00;9.00;4.00
72031;PMS5003;49185;42.320;23.198;2023-07-20T09:21:06;8.00;8.00;5.25
72031;PMS5003;49185;42.320;23.198;2023-07-20T09:23:35;8.00;8.00;4.25
72031;PMS5003;49185;42.320;23.198;2023-07-20T09:26:12;9.00;9.00;3.00
72031;PMS5003;49185;42.320;23.198;2023-07-20T09:28:42;7.25;6.00;3.25
72031;PMS5003;49185;42.320;23.198;2023-07-20T09:31:15;7.00;7.00;3.00
72031;PMS5003;49185;42.320;23.198;2023-07-20T09:33:42;8.50;8.50;3.75
72031;PMS5003;49185;42.320;23.198;2023-07-20T09:36:09;9.00;9.00;3.00
72031;PMS5003;49185;42.320;23.198;2023-07-20T09:38:35;6.00;6.00;3.00
72031;PMS5003;49185;42.320;23.198;2023-07-20T09:41:01;8.00;5.25;3.00
72031;PMS5003;49185;42.320;23.198;2023-07-20T09:43:29;4.67;4.00;1.00
72031;PMS5003;49185;42.320;23.198;2023-07-20T09:45:57;5.75;5.75;1.50
72031;PMS5003;49185;42.320;23.198;2023-07-20T09:48:23;7.00;7.00;4.50
72031;PMS5003;49185;42.320;23.198;2023-07-20T09:50:50;5.00;5.00;3.00
72031;PMS5003;49185;42.320;23.198;2023-07-20T09:53:16;8.50;8.50;3.25
72031;PMS5003;49185;42.320;23.198;2023-07-20T09:55:43;5.00;5.00;3.00
72031;PMS5003;49185;42.320;23.198;2023-07-20T09:58:10;6.00;5.00;3.00
72031;PMS5003;49185;42.320;23.198;2023-07-20T10:00:36;7.00;7.00;2.00
72031;PMS5003;49185;42.320;23.198;2023-07-20T10:03:03;7.00;6.50;3.00
72031;PMS5003;49185;42.320;23.198;2023-07-20T10:05:31;7.75;7.50;2.00
72031;PMS5003;49185;42.320;23.198;2023-07-20T10:07:58;7.00;7.00;3.00
72031;PMS5003;49185;42.320;23.198;2023-07-20T10:10:26;7.00;6.25;3.00
72031;PMS5003;49185;42.320;23.198;2023-07-20T10:12:52;7.00;7.00;3.00
72031;PMS5003;49185;42.320;23.198;2023-07-20T10:15:23;6.00;6.00;2.33
72031;PMS5003;49185;42.320;23.198;2023-07-20T10:17:59;6.25;5.25;3.00
72031;PMS5003;49185;42.320;23.198;2023-07-20T10:20:32;6.50;6.25;2.00
72031;PMS5003;49185;42.320;23.198;2023-07-20T10:23:00;7.00;7.00;2.50
72031;PMS5003;49185;42.320;23.198;2023-07-20T10:25:26;7.00;7.00;4.00
72031;PMS5003;49185;42.320;23.198;2023-07-20T10:27:52;7.00;6.00;3.00
72031;PMS5003;49185;42.320;23.198;2023-07-20T10:30:18;6.00;5.00;3.00
72031;PMS5003;49185;42.320;23.198;2023-07-20T10:32:44;6.00;6.00;2.00
72031;PMS5003;49185;42.320;23.198;2023-07-20T10:35:14;7.00;6.00;3.00
72031;PMS5003;49185;42.320;23.198;2023-07-20T10:37:50;5.00;5.00;3.00
72031;PMS5003;49185;42.320;23.198;2023-07-20T10:43:06;5.00;5.00;1.00
72031;PMS5003;49185;42.320;23.198;2023-07-20T10:45:36;5.25;5.25;1.00
72031;PMS5003;49185;42.320;23.198;2023-07-20T10:48:06;4.00;3.25;2.00
72031;PMS5003;49185;42.320;23.198;2023-07-20T10:50:38;3.50;3.50;2.00
72031;PMS5003;49185;42.320;23.198;2023-07-20T10:53:09;3.00;3.00;1.00
72031;PMS5003;49185;42.320;23.198;2023-07-20T10:55:39;4.00;4.00;1.00
72031;PMS5003;49185;42.320;23.198;2023-07-20T10:58:06;5.50;5.00;1.25
72031;PMS5003;49185;42.320;23.198;2023-07-20T11:00:35;4.00;4.00;1.00
72031;PMS5003;49185;42.320;23.198;2023-07-20T11:03:00;4.00;4.00;1.00
72031;PMS5003;49185;42.320;23.198;2023-07-20T11:08:11;5.75;5.00;1.00
72031;PMS5003;49185;42.320;23.198;2023-07-20T11:10:37;5.50;5.00;1.00
72031;PMS5003;49185;42.320;23.198;2023-07-20T11:15:48;4.75;4.50;1.00
72031;PMS5003;49185;42.320;23.198;2023-07-20T11:18:27;4.00;3.00;1.00
72031;PMS5003;49185;42.320;23.198;2023-07-20T11:20:53;4.00;3.00;0.00
72031;PMS5003;49185;42.320;23.198;2023-07-20T11:23:19;5.67;4.00;0.00
72031;PMS5003;49185;42.320;23.198;2023-07-20T11:25:45;6.00;4.00;0.00
72031;PMS5003;49185;42.320;23.198;2023-07-20T11:28:14;3.67;3.67;0.00
72031;PMS5003;49185;42.320;23.198;2023-07-20T11:30:39;4.00;3.00;0.00
72031;PMS5003;49185;42.320;23.198;2023-07-20T11:33:05;2.00;2.00;0.00
72031;PMS5003;49185;42.320;23.198;2023-07-20T11:35:43;5.00;5.00;1.25
72031;PMS5003;49185;42.320;23.198;2023-07-20T11:38:12;6.00;5.50;1.00
72031;PMS5003;49185;42.320;23.198;2023-07-20T11:40:47;5.50;5.00;0.00
72031;PMS5003;49185;42.320;23.198;2023-07-20T11:43:13;6.00;5.00;1.00
72031;PMS5003;49185;42.320;23.198;2023-07-20T11:45:39;6.50;5.50;2.00
72031;PMS5003;49185;42.320;23.198;2023-07-20T11:48:05;5.67;5.67;2.67
72031;PMS5003;49185;42.320;23.198;2023-07-20T11:50:30;5.00;5.00;1.33
72031;PMS5003;49185;42.320;23.198;2023-07-20T11:52:56;6.00;6.00;3.00
72031;PMS5003;49185;42.320;23.198;2023-07-20T11:55:22;5.00;5.00;2.00
72031;PMS5003;49185;42.320;23.198;2023-07-20T12:01:04;5.00;5.00;2.00
72031;PMS5003;49185;42.320;23.198;2023-07-20T12:03:30;8.00;7.00;3.00
72031;PMS5003;49185;42.320;23.198;2023-07-20T12:06:08;7.00;7.00;3.00
72031;PMS5003;49185;42.320;23.198;2023-07-20T12:08:34;5.50;4.75;2.00
72031;PMS5003;49185;42.320;23.198;2023-07-20T12:11:03;7.00;7.00;3.00
72031;PMS5003;49185;42.320;23.198;2023-07-20T12:13:38;7.67;7.67;2.00
72031;PMS5003;49185;42.320;23.198;2023-07-20T12:16:11;7.75;6.75;4.00
72031;PMS5003;49185;42.320;23.198;2023-07-20T12:18:39;5.75;5.25;3.00
72031;PMS5003;49185;42.320;23.198;2023-07-20T12:21:06;6.67;6.67;3.33
72031;PMS5003;49185;42.320;23.198;2023-07-20T12:23:37;7.75;7.75;3.00
72031;PMS5003;49185;42.320;23.198;2023-07-20T12:26:05;6.75;6.75;3.00
72031;PMS5003;49185;42.320;23.198;2023-07-20T12:28:32;7.00;6.00;3.50
72031;PMS5003;49185;42.320;23.198;2023-07-20T12:30:58;7.00;6.00;2.00
72031;PMS5003;49185;42.320;23.198;2023-07-20T12:33:23;8.00;7.00;2.00
72031;PMS5003;49185;42.320;23.198;2023-07-20T12:35:49;7.33;6.00;3.33
72031;PMS5003;49185;42.320;23.198;2023-07-20T12:38:15;7.00;7.00;2.00
72031;PMS5003;49185;42.320;23.198;2023-07-20T12:40:41;6.00;5.00;2.00
72031;PMS5003;49185;42.320;23.198;2023-07-20T12:43:07;7.00;7.00;3.00
72031;PMS5003;49185;42.320;23.198;2023-07-20T12:45:36;6.50;6.50;3.00
72031;PMS5003;49185;42.320;23.198;2023-07-20T12:48:01;7.67;6.33;3.67
72031;PMS5003;49185;42.320;23.198;2023-07-20T12:50:29;7.00;6.50;3.00
72031;PMS5003;49185;42.320;23.198;2023-07-20T12:52:55;7.67;7.67;3.00
72031;PMS5003;49185;42.320;23.198;2023-07-20T12:55:20;8.00;7.00;3.67
72031;PMS5003;49185;42.320;23.198;2023-07-20T12:57:46;7.50;7.50;3.25
72031;PMS5003;49185;42.320;23.198;2023-07-20T13:00:14;10.00;10.00;5.00
72031;PMS5003;49185;42.320;23.198;2023-07-20T13:02:40;11.00;11.00;5.00
72031;PMS5003;49185;42.320;23.198;2023-07-20T13:05:06;10.67;10.00;5.00
72031;PMS5003;49185;42.320;23.198;2023-07-20T13:07:35;13.00;12.00;7.00
72031;PMS5003;49185;42.320;23.198;2023-07-20T13:10:02;10.50;8.50;5.50
72031;PMS5003;49185;42.320;23.198;2023-07-20T13:12:28;10.00;9.00;5.00
72031;PMS5003;49185;42.320;23.198;2023-07-20T13:14:55;7.00;7.00;3.00
72031;PMS5003;49185;42.320;23.198;2023-07-20T13:17:20;8.00;8.00;3.00
72031;PMS5003;49185;42.320;23.198;2023-07-20T13:19:46;11.00;8.00;5.00
72031;PMS5003;49185;42.320;23.198;2023-07-20T13:22:11;9.00;9.00;5.00
72031;PMS5003;49185;42.320;23.198;2023-07-20T13:24:37;8.00;8.00;4.00
72031;PMS5003;49185;42.320;23.198;2023-07-20T13:27:02;11.00;11.00;4.00
72031;PMS5003;49185;42.320;23.198;2023-07-20T13:29:28;8.00;7.33;3.00
72031;PMS5003;49185;42.320;23.198;2023-07-20T13:31:53;9.00;8.67;5.00
72031;PMS5003;49185;42.320;23.198;2023-07-20T13:34:19;7.33;7.33;5.00
72031;PMS5003;49185;42.320;23.198;2023-07-20T13:36:44;11.00;11.00;5.00
72031;PMS5003;49185;42.320;23.198;2023-07-20T13:39:09;9.00;9.00;4.00
72031;PMS5003;49185;42.320;23.198;2023-07-20T13:41:35;8.00;8.00;4.67
72031;PMS5003;49185;42.320;23.198;2023-07-20T13:44:00;10.00;8.00;4.00
72031;PMS5003;49185;42.320;23.198;2023-07-20T13:46:26;9.00;8.67;4.00
72031;PMS5003;49185;42.320;23.198;2023-07-20T13:48:51;10.67;8.67;4.67
72031;PMS5003;49185;42.320;23.198;2023-07-20T13:51:17;9.33;9.00;4.33
72031;PMS5003;49185;42.320;23.198;2023-07-20T13:53:42;9.00;8.67;4.00
72031;PMS5003;49185;42.320;23.198;2023-07-20T13:56:10;9.75;9.25;5.00
72031;PMS5003;49185;42.320;23.198;2023-07-20T13:58:35;11.33;11.00;5.00
72031;PMS5003;49185;42.320;23.198;2023-07-20T14:01:00;13.00;11.00;6.00
72031;PMS5003;49185;42.320;23.198;2023-07-20T14:03:26;10.67;8.00;5.00
72031;PMS5003;49185;42.320;23.198;2023-07-20T14:05:51;11.67;10.67;5.33
72031;PMS5003;49185;42.320;23.198;2023-07-20T14:08:17;12.00;11.00;4.33
72031;PMS5003;49185;42.320;23.198;2023-07-20T14:10:42;13.33;11.33;6.00
72031;PMS5003;49185;42.320;23.198;2023-07-20T14:13:08;12.00;9.00;5.00
72031;PMS5003;49185;42.320;23.198;2023-07-20T14:15:34;10.00;8.00;5.00
72031;PMS5003;49185;42.320;23.198;2023-07-20T14:18:00;11.00;10.00;5.00
72031;PMS5003;49185;42.320;23.198;2023-07-20T14:20:26;10.00;9.00;5.00
72031;PMS5003;49185;42.320;23.198;2023-07-20T14:22:51;10.67;9.67;5.00
72031;PMS5003;49185;42.320;23.198;2023-07-20T14:25:16;11.00;9.00;4.00